This is the latest recevied weather packets stored in our database for station/object HK4K-15. If no packets are shown the sender has not sent any weather packets the latest 10 day(s).
| Time | Temp. | Humidity | Pressure | Rain* | Wind** | Luminosity | Snow |
|---|---|---|---|---|---|---|---|
| 1787417789 | 23.33° C | 64% | 1014 hPa | 0 mm | - | - | - |
| 1787416768 | 20° C | 72% | 1014 hPa | 0 mm | - | - | - |
| 1787415748 | 20.56° C | 72% | 1015 hPa | 0.25 mm | - | - | - |
| 1787414727 | 21.11° C | 71% | 1015 hPa | 0 mm | - | - | - |
| 1787413707 | 21.67° C | 71% | 1015 hPa | 0.25 mm | - | - | - |
| 1787412686 | 18.89° C | 81% | 1016 hPa | 0.25 mm | - | - | - |
| 1787411666 | 18.89° C | 81% | 1016 hPa | 0 mm | - | - | - |
| 1787410645 | 19.44° C | 81% | 1016 hPa | 0 mm | - | - | - |
| 1787409625 | 19.44° C | 82% | 1016 hPa | 0.25 mm | - | - | - |
| 1787408604 | 18.89° C | 84% | 1016 hPa | 0 mm | - | - | - |
| 1787407584 | 18.89° C | 85% | 1016 hPa | 0 mm | - | - | - |
| 1787406564 | 18.89° C | 86% | 1016 hPa | 0 mm | - | - | - |
| 1787405543 | 19.44° C | 85% | 1016 hPa | 0 mm | - | - | - |
| 1787404522 | 17.22° C | 87% | 1016 hPa | 0 mm | - | - | - |
| 1787403502 | 17.22° C | 88% | 1016 hPa | 0 mm | - | - | - |
| 1787402482 | 17.22° C | 88% | 1016 hPa | 0 mm | - | - | - |
| 1787401461 | 17.22° C | 89% | 1017 hPa | 0 mm | - | - | - |
| 1787400441 | 17.22° C | 90% | 1017 hPa | 0 mm | - | - | - |
| 1787399420 | 17.22° C | 91% | 1017 hPa | 0 mm | - | - | - |
| 1787398400 | 17.22° C | 91% | 1017 hPa | 0 mm | - | - | - |
| 1787397379 | 17.22° C | 91% | 1016 hPa | 0 mm | - | - | - |
| 1787396359 | 17.22° C | 91% | 1016 hPa | 0 mm | - | - | - |
| 1787395338 | 17.22° C | 91% | 1016 hPa | 0 mm | - | - | - |
| 1787394318 | 17.22° C | 90% | 1015 hPa | 0 mm | - | - | - |
| 1787393297 | 17.22° C | 89% | 1015 hPa | 0 mm | - | - | - |
* Rain latest hour (hover to see other rain measurements)
** Current wind speed in m/s (hover to see current wind gust speed)